createdAt,value
2022-11-28T00:00:19.201Z,13.7
2022-11-28T00:03:19.388Z,13.5
2022-11-28T00:06:19.216Z,13
2022-11-28T00:09:19.224Z,14.6
2022-11-28T00:12:19.220Z,13.4
2022-11-28T00:15:19.238Z,13.3
2022-11-28T00:18:19.228Z,13.8
2022-11-28T00:21:19.352Z,14.1
2022-11-28T00:24:19.238Z,12.7
2022-11-28T00:27:19.235Z,14
2022-11-28T00:30:19.260Z,13.5
2022-11-28T00:33:19.244Z,12.4
2022-11-28T00:36:19.249Z,12.7
2022-11-28T00:39:19.370Z,13.2
2022-11-28T00:42:19.261Z,13.3
2022-11-28T00:45:19.276Z,12.6
2022-11-28T00:48:19.277Z,13.1
2022-11-28T00:51:19.289Z,12.5
2022-11-28T00:54:19.281Z,13.3
2022-11-28T00:57:19.416Z,13.4
2022-11-28T01:00:19.292Z,13
2022-11-28T01:03:19.297Z,12.8
2022-11-28T01:06:19.303Z,12.8
2022-11-28T01:09:19.307Z,13.6
2022-11-28T01:12:19.306Z,12.4
2022-11-28T01:15:19.441Z,14.2
2022-11-28T01:18:19.308Z,13.3
2022-11-28T01:21:19.318Z,12.4
2022-11-28T01:24:19.330Z,13.1
2022-11-28T01:27:19.324Z,12.4
2022-11-28T01:30:19.335Z,12.4
2022-11-28T01:33:25.236Z,12.3
2022-11-28T01:36:19.458Z,13
2022-11-28T01:39:19.353Z,13.1
2022-11-28T01:42:19.356Z,14.3
2022-11-28T01:45:19.353Z,14.1
2022-11-28T01:48:19.365Z,13.5
2022-11-28T01:51:19.368Z,12.3
2022-11-28T01:54:19.492Z,11.3
2022-11-28T01:57:19.381Z,12.2
2022-11-28T02:00:19.386Z,12.3
2022-11-28T02:03:19.375Z,13
2022-11-28T02:06:19.387Z,12.9
2022-11-28T02:09:19.384Z,12.5
2022-11-28T02:12:19.510Z,13.9
2022-11-28T02:15:19.396Z,13.7
2022-11-28T02:18:19.402Z,13.1
2022-11-28T02:21:19.393Z,13.5
2022-11-28T02:24:19.398Z,13.9
2022-11-28T02:27:19.413Z,13.2
2022-11-28T02:30:19.524Z,13.9
2022-11-28T02:33:19.407Z,13.2
2022-11-28T02:36:19.409Z,14
2022-11-28T02:39:19.407Z,14.6
2022-11-28T02:42:19.419Z,14.2
2022-11-28T02:45:19.422Z,15.1
2022-11-28T02:48:19.543Z,14
2022-11-28T02:51:19.444Z,14.3
2022-11-28T02:54:19.446Z,16.1
2022-11-28T02:57:19.458Z,15
2022-11-28T03:00:19.455Z,14.5
2022-11-28T03:03:19.466Z,14.2
2022-11-28T03:06:19.617Z,14.5
2022-11-28T03:09:19.475Z,14.1
2022-11-28T03:12:19.480Z,13.2
2022-11-28T03:15:19.491Z,13.5
2022-11-28T03:18:19.498Z,12.8
2022-11-28T03:21:19.506Z,12.6
2022-11-28T03:24:19.630Z,13.5
2022-11-28T03:27:19.508Z,13
2022-11-28T03:30:19.521Z,13.9
2022-11-28T03:33:19.522Z,14.8
2022-11-28T03:36:19.535Z,11.9
2022-11-28T03:39:19.536Z,13.1
2022-11-28T03:42:19.668Z,13.4
2022-11-28T03:45:19.552Z,13.9
2022-11-28T03:48:19.559Z,12.2
2022-11-28T03:51:19.557Z,15
2022-11-28T03:54:19.565Z,13.1
2022-11-28T03:57:19.569Z,13.3
2022-11-28T04:00:19.703Z,12.6
2022-11-28T04:03:19.619Z,14.5
2022-11-28T04:06:19.585Z,14.5
2022-11-28T04:09:19.596Z,14.4
2022-11-28T04:12:19.604Z,15.6
2022-11-28T04:15:19.608Z,15.4
2022-11-28T04:18:19.731Z,16.3
2022-11-28T04:21:19.609Z,16.3
2022-11-28T04:24:19.619Z,16.2
2022-11-28T04:27:19.623Z,16.3
2022-11-28T04:30:19.624Z,14.5
2022-11-28T04:33:19.623Z,15.7
2022-11-28T04:36:19.743Z,15.8
2022-11-28T04:39:19.632Z,15.8
2022-11-28T04:42:19.638Z,15.8
2022-11-28T04:45:19.644Z,15.2
2022-11-28T04:48:19.646Z,15.8
2022-11-28T04:51:19.643Z,15.3
2022-11-28T04:54:19.784Z,15.5
2022-11-28T04:57:19.657Z,14.5
2022-11-28T05:00:19.665Z,15.9
2022-11-28T05:03:19.669Z,15.4
2022-11-28T05:06:19.671Z,14.3
2022-11-28T05:09:19.676Z,14.6
2022-11-28T05:12:19.797Z,15.9
2022-11-28T05:15:19.681Z,15.6
2022-11-28T05:18:19.690Z,15.4
2022-11-28T05:21:19.689Z,15.1
2022-11-28T05:24:19.700Z,15.1
2022-11-28T05:27:19.790Z,14.7
2022-11-28T05:30:19.850Z,14.1
2022-11-28T05:33:19.710Z,14.8
2022-11-28T05:36:19.721Z,13.9
2022-11-28T05:39:19.729Z,15.5
2022-11-28T05:42:19.731Z,14.7
2022-11-28T05:45:19.743Z,13.9
2022-11-28T05:48:19.874Z,14.8
2022-11-28T05:51:19.749Z,15.6
2022-11-28T05:54:19.750Z,14.6
2022-11-28T05:57:19.761Z,15.7
2022-11-28T06:00:19.766Z,14.4
2022-11-28T06:03:19.769Z,13.3
2022-11-28T06:06:19.834Z,15.5
2022-11-28T06:09:23.312Z,15.1
2022-11-28T06:12:19.788Z,13.9
2022-11-28T06:15:19.793Z,14.3
2022-11-28T06:18:19.802Z,16.8
2022-11-28T06:21:19.809Z,15.5
2022-11-28T06:24:19.930Z,15.7
2022-11-28T06:27:19.812Z,15.6
2022-11-28T06:30:19.811Z,16.1
2022-11-28T06:33:19.814Z,17.3
2022-11-28T06:36:19.824Z,15.1
2022-11-28T06:39:19.825Z,15.4
2022-11-28T06:42:19.951Z,14.9
2022-11-28T06:45:19.828Z,15
2022-11-28T06:48:19.832Z,15.7
2022-11-28T06:51:19.833Z,15.3
2022-11-28T06:54:19.831Z,15
2022-11-28T06:57:19.843Z,16.2
2022-11-28T07:00:19.961Z,14.6
2022-11-28T07:03:19.846Z,14.7
2022-11-28T07:06:19.860Z,15.4
2022-11-28T07:09:19.857Z,14.1
2022-11-28T07:12:19.863Z,14.7
2022-11-28T07:15:19.867Z,14
2022-11-28T07:18:19.994Z,16.1
2022-11-28T07:21:19.877Z,13.9
2022-11-28T07:24:19.881Z,16.6
2022-11-28T07:27:19.881Z,15.2
2022-11-28T07:30:19.883Z,15.1
2022-11-28T07:33:19.887Z,15.3
2022-11-28T07:36:20.010Z,16.7
2022-11-28T07:39:19.892Z,15.1
2022-11-28T07:42:19.891Z,14.6
2022-11-28T07:45:19.901Z,15.8
2022-11-28T07:48:19.913Z,15.3
2022-11-28T07:51:19.908Z,14.1
2022-11-28T07:54:19.942Z,14.5
2022-11-28T07:57:19.924Z,16.4
2022-11-28T08:00:19.926Z,16
2022-11-28T08:03:19.923Z,16.4
2022-11-28T08:06:19.939Z,15.2
2022-11-28T08:09:19.934Z,15.9
2022-11-28T08:12:19.963Z,16.1
2022-11-28T08:15:19.946Z,15.7
2022-11-28T08:18:19.957Z,14.5
2022-11-28T08:21:19.955Z,15
2022-11-28T08:24:19.973Z,15.3
2022-11-28T08:27:19.963Z,15.1
2022-11-28T08:30:20.042Z,15.8
2022-11-28T08:33:19.980Z,15.6
2022-11-28T08:36:19.985Z,16.1
2022-11-28T08:39:24.690Z,14.5
2022-11-28T08:42:19.991Z,14.5
2022-11-28T08:45:20.001Z,13.6
2022-11-28T08:48:20.030Z,14.6
2022-11-28T08:51:20.013Z,14.2
2022-11-28T08:54:20.016Z,14.5
2022-11-28T08:57:20.021Z,14.8
2022-11-28T09:00:20.028Z,13.8
2022-11-28T09:03:20.036Z,14.7
2022-11-28T09:06:20.064Z,14.1
2022-11-28T09:09:20.042Z,13.8
2022-11-28T09:12:20.043Z,15.2
2022-11-28T09:15:20.052Z,16.6
2022-11-28T09:18:20.061Z,13.8
2022-11-28T09:21:20.067Z,15
2022-11-28T09:24:40.108Z,14.8
2022-11-28T09:27:40.071Z,16.4
2022-11-28T09:30:40.147Z,15.9
2022-11-28T09:33:40.083Z,17
2022-11-28T09:36:40.084Z,16.2
2022-11-28T09:39:57.223Z,16.4
2022-11-28T09:42:40.117Z,16.8
2022-11-28T09:45:40.144Z,16.4
2022-11-28T09:48:40.097Z,16.6
2022-11-28T09:51:40.102Z,16.8
2022-11-28T09:54:40.105Z,16
2022-11-28T09:57:40.118Z,17.6
2022-11-28T10:00:40.134Z,17.3
2022-11-28T10:03:40.173Z,16
2022-11-28T10:06:40.123Z,15.8
2022-11-28T10:09:40.496Z,16.7
2022-11-28T10:12:40.131Z,15.7
2022-11-28T10:15:40.143Z,16.2
2022-11-28T10:18:40.166Z,16.3
2022-11-28T10:21:40.149Z,15.8
2022-11-28T10:24:40.150Z,15.5
2022-11-28T10:27:40.163Z,17.3
2022-11-28T10:30:40.204Z,19
2022-11-28T10:33:40.167Z,15.6
2022-11-28T10:36:40.199Z,16.9
2022-11-28T10:39:40.367Z,13.9
2022-11-28T10:42:40.177Z,15
2022-11-28T10:45:40.245Z,14.3
2022-11-28T10:48:40.950Z,14.4
2022-11-28T10:51:40.191Z,15.6
2022-11-28T10:54:40.213Z,14.6
2022-11-28T10:57:40.195Z,14.7
2022-11-28T11:00:40.203Z,14.7
2022-11-28T11:03:40.201Z,15.4
2022-11-28T11:06:41.944Z,14.3
2022-11-28T11:09:40.431Z,14.8
2022-11-28T11:12:40.235Z,13.8
2022-11-28T11:15:40.254Z,15.4
2022-11-28T11:18:40.234Z,14.7
2022-11-28T11:21:40.254Z,16.4
2022-11-28T11:24:40.267Z,13.7
2022-11-28T11:27:40.274Z,14.3
2022-11-28T11:30:40.354Z,13.5
2022-11-28T11:33:40.306Z,15.1
2022-11-28T11:36:40.395Z,13.4
2022-11-28T11:39:40.469Z,13.5
2022-11-28T11:42:40.344Z,14.9
2022-11-28T11:45:40.353Z,14.4
2022-11-28T11:48:40.396Z,13.8
2022-11-28T11:51:40.382Z,15.4
2022-11-28T11:54:40.395Z,16
2022-11-28T11:57:40.412Z,16
2022-11-28T12:00:40.431Z,15.8
2022-11-28T12:03:40.586Z,14.2
2022-11-28T12:06:40.473Z,14.7
2022-11-28T12:09:40.459Z,15.3
2022-11-28T12:12:40.473Z,13.7
2022-11-28T12:15:40.555Z,15
2022-11-28T12:18:40.505Z,15.1
2022-11-28T12:21:40.518Z,16.9
2022-11-28T12:24:40.556Z,13.7
2022-11-28T12:27:40.541Z,16.2
2022-11-28T12:30:41.951Z,16.4
2022-11-28T12:33:40.568Z,16
2022-11-28T12:36:40.584Z,15.2
2022-11-28T12:39:40.611Z,15.8
2022-11-28T12:42:40.620Z,14.6
2022-11-28T12:45:40.603Z,15.1
2022-11-28T12:48:40.612Z,18.9
2022-11-28T12:51:40.614Z,17.2
2022-11-28T12:54:40.629Z,16.7
2022-11-28T12:57:40.635Z,18.2
2022-11-28T13:00:40.669Z,16.8
2022-11-28T13:03:40.653Z,16.4
2022-11-28T13:06:40.652Z,16.5
2022-11-28T13:09:40.772Z,15.1
2022-11-28T13:12:40.708Z,18.1
2022-11-28T13:15:40.726Z,18.6
2022-11-28T13:18:40.710Z,15.3
2022-11-28T13:21:40.677Z,17.8
2022-11-28T13:24:40.687Z,16.1
2022-11-28T13:27:40.742Z,16.4
2022-11-28T13:30:40.700Z,16.2
2022-11-28T13:33:40.703Z,17.3
2022-11-28T13:39:40.716Z,16.6
2022-11-28T13:43:08.840Z,16.6
2022-11-28T13:45:40.726Z,17.5
2022-11-28T13:51:40.741Z,15.5
2022-11-28T13:54:40.774Z,15.6
2022-11-28T13:57:40.752Z,15.6
2022-11-28T14:00:40.754Z,18.2
2022-11-28T14:03:40.761Z,16.2
2022-11-28T14:06:40.768Z,15.6
2022-11-28T14:09:40.777Z,17
2022-11-28T14:12:40.895Z,16.6
2022-11-28T14:15:40.831Z,16.5
2022-11-28T14:18:57.690Z,15.9
2022-11-28T14:21:40.798Z,15.8
2022-11-28T14:24:40.809Z,15.8
2022-11-28T14:27:40.814Z,16.1
2022-11-28T14:30:40.850Z,15.8
2022-11-28T14:33:40.826Z,17.9
2022-11-28T14:36:40.838Z,16.6
2022-11-28T14:39:40.848Z,15.5
2022-11-28T14:45:40.863Z,15.8
2022-11-28T14:48:40.940Z,16.2
2022-11-28T14:51:40.873Z,18
2022-11-28T14:54:40.881Z,16.7
2022-11-28T14:57:40.888Z,17.7
2022-11-28T15:00:40.893Z,16.3
2022-11-28T15:03:40.897Z,16.3
2022-11-28T15:06:40.929Z,17.1
2022-11-28T15:09:40.910Z,18.7
2022-11-28T15:12:40.915Z,17.4
2022-11-28T15:15:40.925Z,17.1
2022-11-28T15:18:40.932Z,15.7
2022-11-28T15:21:40.938Z,16.8
2022-11-28T15:24:41.098Z,17.1
2022-11-28T15:27:40.953Z,17.1
2022-11-28T15:30:40.963Z,17.2
2022-11-28T15:33:40.968Z,18.3
2022-11-28T15:36:40.970Z,17.9
2022-11-28T15:39:40.978Z,16.3
2022-11-28T15:42:41.015Z,18.6
2022-11-28T15:45:40.990Z,16.6
2022-11-28T15:48:40.997Z,19.1
2022-11-28T15:51:40.997Z,17.8
2022-11-28T15:54:41.370Z,17.9
2022-11-28T15:57:41.003Z,17.8
2022-11-28T16:00:41.115Z,18.6
2022-11-28T16:03:41.023Z,17
2022-11-28T16:06:41.021Z,19
2022-11-28T16:09:41.023Z,18.6
2022-11-28T16:12:41.036Z,21.9
2022-11-28T16:15:42.892Z,21.3
2022-11-28T16:18:41.063Z,19.5
2022-11-28T16:21:41.049Z,19.6
2022-11-28T16:24:41.079Z,18.9
2022-11-28T16:27:41.058Z,19.4
2022-11-28T16:30:41.068Z,21.2
2022-11-28T16:33:41.070Z,21.1
2022-11-28T16:36:41.110Z,22
2022-11-28T16:39:41.086Z,20.2
2022-11-28T16:42:41.085Z,20.2
2022-11-28T16:45:41.109Z,20.9
2022-11-28T16:48:41.098Z,21.4
2022-11-28T16:51:41.102Z,21.2
2022-11-28T16:54:41.129Z,20.3
2022-11-28T16:57:41.109Z,19.5
2022-11-28T17:00:41.160Z,20.7
2022-11-28T17:03:41.117Z,23.2
2022-11-28T17:06:41.120Z,21.9
2022-11-28T17:09:41.473Z,20.4
2022-11-28T17:12:41.157Z,22.7
2022-11-28T17:15:41.128Z,22.7
2022-11-28T17:18:41.130Z,21.6
2022-11-28T17:21:41.133Z,22.2
2022-11-28T17:24:41.157Z,21.8
2022-11-28T17:27:41.142Z,23
2022-11-28T17:30:41.157Z,23.4
2022-11-28T17:33:44.581Z,21.7
2022-11-28T17:36:41.143Z,22
2022-11-28T17:39:41.144Z,22.6
2022-11-28T17:42:41.145Z,24.8
2022-11-28T17:45:41.270Z,23.1
2022-11-28T17:48:41.176Z,23.3
2022-11-28T17:51:41.158Z,23.7
2022-11-28T17:54:41.164Z,24.3
2022-11-28T17:57:41.175Z,24.2
2022-11-28T18:00:41.208Z,24.2
2022-11-28T18:03:41.189Z,24.6
2022-11-28T18:06:41.223Z,23.2
2022-11-28T18:09:41.341Z,24.5
2022-11-28T18:12:41.212Z,24.9
2022-11-28T18:15:41.220Z,23.6
2022-11-28T18:18:41.231Z,24.1
2022-11-28T18:21:41.236Z,24
2022-11-28T18:24:41.279Z,23.2
2022-11-28T18:27:41.255Z,25.7
2022-11-28T18:30:41.263Z,26.1
2022-11-28T18:33:41.276Z,24.4
2022-11-28T18:36:41.284Z,25.4
2022-11-28T18:39:41.510Z,25.6
2022-11-28T18:42:41.375Z,24.8
2022-11-28T18:45:41.329Z,26.4
2022-11-28T18:48:41.310Z,27
2022-11-28T18:51:41.320Z,25.8
2022-11-28T18:54:41.332Z,24.8
2022-11-28T18:57:41.344Z,27
2022-11-28T19:00:41.382Z,26.1
2022-11-28T19:03:41.363Z,25.2
2022-11-28T19:06:41.375Z,28.2
2022-11-28T19:09:41.481Z,27
2022-11-28T19:12:41.388Z,29.1
2022-11-28T19:15:41.402Z,28.9
2022-11-28T19:18:41.437Z,28.1
2022-11-28T19:21:41.428Z,29.6
2022-11-28T19:24:41.437Z,27.1
2022-11-28T19:27:41.441Z,28.9
2022-11-28T19:30:41.442Z,27.6
2022-11-28T19:33:41.461Z,29.2
2022-11-28T19:36:41.500Z,27.8
2022-11-28T19:39:41.784Z,28.2
2022-11-28T19:42:41.488Z,31.2
2022-11-28T19:45:41.506Z,30
2022-11-28T19:48:41.510Z,30.8
2022-11-28T19:51:41.511Z,28.8
2022-11-28T19:54:41.584Z,29
2022-11-28T19:57:41.532Z,28.7
2022-11-28T20:00:41.535Z,28.3
2022-11-28T20:03:41.547Z,28.4
2022-11-28T20:06:41.554Z,27.7
2022-11-28T20:09:41.694Z,29.5
2022-11-28T20:12:41.607Z,29.1
2022-11-28T20:15:41.591Z,29.6
2022-11-28T20:18:41.596Z,27.5
2022-11-28T20:21:41.607Z,27.4
2022-11-28T20:24:41.621Z,28.9
2022-11-28T20:27:41.631Z,29.1
2022-11-28T20:30:41.662Z,29.5
2022-11-28T20:33:41.658Z,27
2022-11-28T20:36:41.667Z,28
2022-11-28T20:39:41.944Z,26
2022-11-28T20:42:41.683Z,27.9
2022-11-28T20:45:41.718Z,30.3
2022-11-28T20:48:41.732Z,27.9
2022-11-28T20:51:41.720Z,26.7
2022-11-28T20:54:41.730Z,27.6
2022-11-28T20:57:41.741Z,26.3
2022-11-28T21:00:41.849Z,27
2022-11-28T21:03:41.764Z,28
2022-11-28T21:06:41.808Z,28.9
2022-11-28T21:09:41.989Z,26.6
2022-11-28T21:12:41.809Z,26.8
2022-11-28T21:15:41.816Z,25.8
2022-11-28T21:18:41.828Z,26
2022-11-28T21:21:41.848Z,25.6
2022-11-28T21:24:41.881Z,27
2022-11-28T21:27:41.864Z,24.7
2022-11-28T21:30:41.872Z,25.5
2022-11-28T21:33:41.887Z,23.7
2022-11-28T21:36:41.971Z,26.4
2022-11-28T21:39:42.213Z,26
2022-11-28T21:42:41.954Z,24.8
2022-11-28T21:45:42.063Z,24.9
2022-11-28T21:48:41.954Z,24.8
2022-11-28T21:51:41.968Z,24.9
2022-11-28T21:54:41.975Z,24.9
2022-11-28T21:57:41.995Z,24.9
2022-11-28T22:00:55.379Z,23
2022-11-28T22:03:42.007Z,23.2
2022-11-28T22:06:42.016Z,23.9
2022-11-28T22:09:42.024Z,25
2022-11-28T22:12:42.029Z,25.9
2022-11-28T22:15:42.075Z,22.9
2022-11-28T22:18:42.060Z,23.7
2022-11-28T22:21:57.111Z,24.4
2022-11-28T22:24:42.040Z,23.4
2022-11-28T22:27:42.049Z,23.7
2022-11-28T22:30:42.049Z,22.9
2022-11-28T22:33:42.057Z,24.6
2022-11-28T22:36:42.076Z,24.5
2022-11-28T22:39:42.066Z,24.1
2022-11-28T22:42:42.069Z,22.9
2022-11-28T22:45:42.102Z,23.4
2022-11-28T22:48:42.083Z,23.7
2022-11-28T22:51:42.085Z,24.3
2022-11-28T22:54:42.340Z,25.2
2022-11-28T22:57:42.080Z,26.1
2022-11-28T23:00:42.093Z,23.9
2022-11-28T23:03:42.083Z,23.4
2022-11-28T23:06:42.088Z,24.3
2022-11-28T23:09:42.089Z,23.2
2022-11-28T23:12:42.124Z,25.3
2022-11-28T23:15:45.222Z,24.8
2022-11-28T23:18:42.091Z,23.2
2022-11-28T23:21:42.084Z,26
2022-11-28T23:24:42.373Z,24.5
2022-11-28T23:27:42.094Z,25.9
2022-11-28T23:30:42.114Z,24.2
2022-11-28T23:33:42.091Z,26.1
2022-11-28T23:36:43.014Z,24.7
2022-11-28T23:39:42.097Z,25.5
2022-11-28T23:42:42.095Z,24.9
2022-11-28T23:45:42.124Z,24.8
2022-11-28T23:48:42.127Z,25.7
2022-11-28T23:51:42.100Z,25.7
2022-11-28T23:54:42.369Z,27.3
2022-11-28T23:57:42.104Z,25.5
